createdAt,value
2018-08-24T00:00:11.737Z,19.80
2018-08-24T00:02:40.632Z,20.00
2018-08-24T00:05:07.018Z,19.90
2018-08-24T00:07:34.034Z,19.90
2018-08-24T00:10:01.059Z,19.90
2018-08-24T00:12:28.009Z,19.80
2018-08-24T00:14:54.977Z,19.80
2018-08-24T00:17:27.699Z,19.70
2018-08-24T00:19:54.676Z,19.60
2018-08-24T00:22:21.662Z,19.60
2018-08-24T00:24:48.670Z,19.70
2018-08-24T00:27:16.231Z,19.70
2018-08-24T00:29:43.216Z,19.70
2018-08-24T00:32:10.194Z,19.70
2018-08-24T00:34:37.192Z,19.70
2018-08-24T00:37:04.167Z,19.80
2018-08-24T00:39:31.191Z,19.80
2018-08-24T00:41:58.200Z,19.80
2018-08-24T00:44:25.186Z,19.80
2018-08-24T00:46:52.176Z,19.80
2018-08-24T00:49:19.150Z,19.90
2018-08-24T00:51:46.110Z,19.90
2018-08-24T00:54:13.114Z,19.80
2018-08-24T00:56:40.100Z,19.80
2018-08-24T00:59:07.095Z,19.80
2018-08-24T01:01:34.110Z,19.80
2018-08-24T01:04:01.094Z,19.80
2018-08-24T01:06:28.062Z,19.90
2018-08-24T01:08:55.063Z,19.90
2018-08-24T01:11:27.854Z,20.00
2018-08-24T01:13:54.859Z,20.00
2018-08-24T01:16:27.549Z,20.00
2018-08-24T01:18:54.545Z,20.00
2018-08-24T01:21:21.516Z,20.00
2018-08-24T01:23:48.508Z,20.00
2018-08-24T01:26:21.891Z,20.00
2018-08-24T01:28:50.528Z,20.10
2018-08-24T01:31:17.599Z,20.10
2018-08-24T01:33:44.562Z,20.00
2018-08-24T01:36:11.565Z,19.90
2018-08-24T01:38:38.532Z,20.00
2018-08-24T01:41:05.515Z,19.80
2018-08-24T01:43:32.547Z,19.80
2018-08-24T01:46:05.404Z,19.90
2018-08-24T01:48:32.399Z,20.00
2018-08-24T01:50:59.400Z,20.00
2018-08-24T01:53:26.371Z,20.00
2018-08-24T01:55:53.354Z,19.90
2018-08-24T01:58:20.365Z,19.90
2018-08-24T02:00:47.343Z,19.90
2018-08-24T02:03:14.324Z,19.90
2018-08-24T02:05:41.311Z,20.00
2018-08-24T02:08:08.323Z,19.80
2018-08-24T02:10:35.286Z,19.90
2018-08-24T02:13:08.100Z,20.00
2018-08-24T02:15:39.176Z,20.00
2018-08-24T02:18:12.080Z,20.10
2018-08-24T02:20:44.900Z,20.10
2018-08-24T02:23:11.892Z,20.20
2018-08-24T02:25:38.895Z,20.20
2018-08-24T02:28:06.299Z,20.20
2018-08-24T02:30:33.675Z,20.20
2018-08-24T02:33:00.750Z,20.10
2018-08-24T02:35:27.738Z,20.20
2018-08-24T02:37:54.714Z,20.30
2018-08-24T02:40:21.723Z,20.30
2018-08-24T02:42:48.694Z,20.30
2018-08-24T02:45:16.372Z,20.40
2018-08-24T02:47:43.352Z,20.40
2018-08-24T02:50:10.338Z,20.30
2018-08-24T02:52:37.319Z,20.30
2018-08-24T02:55:04.308Z,20.30
2018-08-24T02:57:31.516Z,20.30
2018-08-24T02:59:58.530Z,20.20
2018-08-24T03:02:25.844Z,20.20
2018-08-24T03:04:52.835Z,20.10
2018-08-24T03:07:19.836Z,20.00
2018-08-24T03:09:46.826Z,19.90
2018-08-24T03:12:13.790Z,19.90
2018-08-24T03:14:40.767Z,19.90
2018-08-24T03:17:13.476Z,19.80
2018-08-24T03:19:40.450Z,19.80
2018-08-24T03:22:07.414Z,19.80
2018-08-24T03:24:34.423Z,19.70
2018-08-24T03:27:01.431Z,19.60
2018-08-24T03:29:28.410Z,19.70
2018-08-24T03:31:55.678Z,19.80
2018-08-24T03:34:22.646Z,19.70
2018-08-24T03:36:49.626Z,19.70
2018-08-24T03:39:16.620Z,19.60
2018-08-24T03:41:43.601Z,19.60
2018-08-24T03:44:10.587Z,19.50
2018-08-24T03:46:37.611Z,19.70
2018-08-24T03:49:04.584Z,19.60
2018-08-24T03:51:31.598Z,19.70
2018-08-24T03:53:58.583Z,19.90
2018-08-24T03:56:25.545Z,19.90
2018-08-24T03:58:52.505Z,19.80
2018-08-24T04:01:19.482Z,19.90
2018-08-24T04:03:46.470Z,20.00
2018-08-24T04:06:13.449Z,20.10
2018-08-24T04:08:40.467Z,20.10
2018-08-24T04:11:07.457Z,20.10
2018-08-24T04:13:34.424Z,20.00
2018-08-24T04:16:01.423Z,20.00
2018-08-24T04:18:28.408Z,19.90
2018-08-24T04:20:55.374Z,19.80
2018-08-24T04:25:50.934Z,19.90
2018-08-24T04:28:17.899Z,19.60
2018-08-24T04:30:44.904Z,19.90
2018-08-24T04:33:12.196Z,19.90
2018-08-24T04:35:39.167Z,19.90
2018-08-24T04:38:06.138Z,19.90
2018-08-24T04:40:33.120Z,20.00
2018-08-24T04:43:00.146Z,20.00
2018-08-24T04:45:27.220Z,18.60
2018-08-24T04:47:54.155Z,20.10
2018-08-24T04:50:21.162Z,20.10
2018-08-24T04:52:48.150Z,20.10
2018-08-24T04:55:15.133Z,20.10
2018-08-24T04:57:42.115Z,20.10
2018-08-24T05:00:09.680Z,20.10
2018-08-24T05:02:36.750Z,20.20
2018-08-24T05:05:04.176Z,20.10
2018-08-24T05:07:31.172Z,20.10
2018-08-24T05:09:58.159Z,20.10
2018-08-24T05:12:25.127Z,20.10
2018-08-24T05:14:52.125Z,20.10
2018-08-24T05:17:19.109Z,20.10
2018-08-24T05:19:46.095Z,20.10
2018-08-24T05:22:13.112Z,20.10
2018-08-24T05:24:40.123Z,20.10
2018-08-24T05:27:07.076Z,20.10
2018-08-24T05:29:34.096Z,20.20
2018-08-24T05:32:01.071Z,20.20
2018-08-24T05:34:28.535Z,20.20
2018-08-24T05:36:55.548Z,20.30
2018-08-24T05:39:22.514Z,20.40
2018-08-24T05:41:49.504Z,20.80
2018-08-24T05:44:16.497Z,20.40
2018-08-24T05:46:43.500Z,20.50
2018-08-24T05:49:10.495Z,20.60
2018-08-24T05:51:37.512Z,20.70
2018-08-24T05:54:04.498Z,20.90
2018-08-24T05:56:31.487Z,20.90
2018-08-24T05:59:20.159Z,21.00
2018-08-24T06:01:47.143Z,21.10
2018-08-24T06:04:14.111Z,21.10
2018-08-24T06:06:41.114Z,21.10
2018-08-24T06:09:11.131Z,21.10
2018-08-24T06:11:38.187Z,21.00
2018-08-24T06:14:05.192Z,21.10
2018-08-24T06:16:32.164Z,21.00
2018-08-24T06:18:59.126Z,21.10
2018-08-24T06:21:26.101Z,21.20
2018-08-24T06:23:53.067Z,21.00
2018-08-24T06:26:20.054Z,21.10
2018-08-24T06:28:47.047Z,21.10
2018-08-24T06:31:14.027Z,21.20
2018-08-24T06:33:41.014Z,21.30
2018-08-24T06:36:08.496Z,21.40
2018-08-24T06:38:35.464Z,21.40
2018-08-24T06:41:02.450Z,21.50
2018-08-24T06:43:29.440Z,21.60
2018-08-24T06:45:56.407Z,21.70
2018-08-24T06:48:23.387Z,21.70
2018-08-24T06:50:50.398Z,21.60
2018-08-24T06:53:17.570Z,21.70
2018-08-24T06:55:44.326Z,21.80
2018-08-24T06:58:11.308Z,22.00
2018-08-24T07:00:38.275Z,22.00
2018-08-24T07:03:05.234Z,22.40
2018-08-24T07:05:32.231Z,21.80
2018-08-24T07:07:59.204Z,22.50
2018-08-24T07:10:26.165Z,22.40
2018-08-24T07:12:53.206Z,22.30
2018-08-24T07:15:20.119Z,21.90
2018-08-24T07:17:52.831Z,21.80
2018-08-24T07:20:19.810Z,21.80
2018-08-24T07:22:46.898Z,21.70
2018-08-24T07:25:13.906Z,21.80
2018-08-24T07:27:40.876Z,21.90
2018-08-24T07:30:07.872Z,21.90
2018-08-24T07:32:34.839Z,22.10
2018-08-24T07:35:01.845Z,22.00
2018-08-24T07:37:29.507Z,22.20
2018-08-24T07:39:56.482Z,22.40
2018-08-24T07:42:23.496Z,22.30
2018-08-24T07:44:51.292Z,22.20
2018-08-24T07:47:18.384Z,22.10
2018-08-24T07:49:45.387Z,22.00
2018-08-24T07:52:12.380Z,22.00
2018-08-24T07:54:39.351Z,21.90
2018-08-24T07:57:06.374Z,21.90
2018-08-24T07:59:33.335Z,21.50
2018-08-24T08:02:00.324Z,22.10
2018-08-24T08:04:27.335Z,22.30
2018-08-24T08:06:54.304Z,22.60
2018-08-24T08:09:21.283Z,22.80
2018-08-24T08:11:48.292Z,22.80
2018-08-24T08:14:15.273Z,22.60
2018-08-24T08:16:42.251Z,22.90
2018-08-24T08:19:09.242Z,23.10
2018-08-24T08:21:36.215Z,23.30
2018-08-24T08:24:03.191Z,23.90
2018-08-24T08:26:30.194Z,24.00
2018-08-24T08:28:57.172Z,23.70
2018-08-24T08:31:24.205Z,23.50
2018-08-24T08:33:51.229Z,23.10
2018-08-24T08:36:18.222Z,23.10
2018-08-24T08:38:45.846Z,23.30
2018-08-24T08:41:12.847Z,22.90
2018-08-24T08:43:39.819Z,22.70
2018-08-24T08:46:06.807Z,23.20
2018-08-24T08:48:33.809Z,23.70
2018-08-24T08:51:00.797Z,24.30
2018-08-24T08:53:27.826Z,24.70
2018-08-24T08:55:54.819Z,25.10
2018-08-24T08:58:21.802Z,25.00
2018-08-24T09:00:48.777Z,25.70
2018-08-24T09:03:15.796Z,25.30
2018-08-24T09:05:42.755Z,25.10
2018-08-24T09:08:09.736Z,25.70
2018-08-24T09:10:36.740Z,25.80
2018-08-24T09:13:03.821Z,25.30
2018-08-24T09:15:30.710Z,25.30
2018-08-24T09:18:03.502Z,26.00
2018-08-24T09:20:36.316Z,26.00
2018-08-24T09:23:09.256Z,25.30
2018-08-24T09:25:42.129Z,24.80
2018-08-24T09:28:14.999Z,25.10
2018-08-24T09:30:50.460Z,25.40
2018-08-24T09:33:17.492Z,25.90
2018-08-24T09:35:44.685Z,26.00
2018-08-24T09:38:11.655Z,26.50
2018-08-24T09:40:44.824Z,27.10
2018-08-24T09:43:17.617Z,26.70
2018-08-24T09:45:44.583Z,27.40
2018-08-24T09:48:17.273Z,27.70
2018-08-24T09:50:50.078Z,27.90
2018-08-24T09:53:22.867Z,27.80
2018-08-24T09:55:49.835Z,27.30
2018-08-24T09:58:16.815Z,26.60
2018-08-24T10:00:49.774Z,25.90
2018-08-24T10:03:22.583Z,25.00
2018-08-24T10:05:55.207Z,25.40
2018-08-24T10:08:27.828Z,26.40
2018-08-24T10:10:54.820Z,26.20
2018-08-24T10:13:21.898Z,25.70
2018-08-24T10:15:48.822Z,25.10
2018-08-24T10:18:15.820Z,24.40
2018-08-24T10:20:42.863Z,24.20
2018-08-24T10:23:09.943Z,24.10
2018-08-24T10:25:36.845Z,23.70
2018-08-24T10:28:03.851Z,23.40
2018-08-24T10:30:30.839Z,24.20
2018-08-24T10:32:57.804Z,25.80
2018-08-24T10:35:24.827Z,26.50
2018-08-24T10:37:51.790Z,26.20
2018-08-24T10:40:18.755Z,25.90
2018-08-24T10:42:46.312Z,26.40
2018-08-24T10:45:13.286Z,26.10
2018-08-24T10:47:40.271Z,26.80
2018-08-24T10:50:07.270Z,27.90
2018-08-24T10:52:34.246Z,28.00
2018-08-24T10:55:01.395Z,27.80
2018-08-24T10:57:28.251Z,27.80
2018-08-24T10:59:55.255Z,27.70
2018-08-24T11:02:22.227Z,27.60
2018-08-24T11:04:49.435Z,27.50
2018-08-24T11:07:16.462Z,26.70
2018-08-24T11:09:43.403Z,24.90
2018-08-24T11:12:10.400Z,24.10
2018-08-24T11:14:37.394Z,24.30
2018-08-24T11:17:04.387Z,23.50
2018-08-24T11:19:31.424Z,22.70
2018-08-24T11:21:58.416Z,22.50
2018-08-24T11:24:25.382Z,21.80
2018-08-24T11:26:52.478Z,21.60
2018-08-24T11:29:19.410Z,21.60
2018-08-24T11:31:46.395Z,21.30
2018-08-24T11:34:13.435Z,21.10
2018-08-24T11:36:40.420Z,20.60
2018-08-24T11:39:08.175Z,20.70
2018-08-24T11:41:35.299Z,20.50
2018-08-24T11:44:02.872Z,19.90
2018-08-24T11:46:29.877Z,20.00
2018-08-24T11:48:56.903Z,19.80
2018-08-24T11:51:23.883Z,20.00
2018-08-24T11:53:50.883Z,19.80
2018-08-24T11:56:17.910Z,19.60
2018-08-24T11:58:44.899Z,19.80
2018-08-24T12:01:11.906Z,19.60
2018-08-24T12:03:38.910Z,19.30
2018-08-24T12:06:05.904Z,18.80
2018-08-24T12:08:32.896Z,18.90
2018-08-24T12:10:59.941Z,19.20
2018-08-24T12:13:26.919Z,19.20
2018-08-24T12:15:53.911Z,19.50
2018-08-24T12:18:20.953Z,19.50
2018-08-24T12:20:47.940Z,19.70
2018-08-24T12:23:14.969Z,20.30
2018-08-24T12:25:41.996Z,21.10
2018-08-24T12:28:09.004Z,21.70
2018-08-24T12:30:35.994Z,21.40
2018-08-24T12:33:03.003Z,21.10
2018-08-24T12:35:30.003Z,20.70
2018-08-24T12:37:57.061Z,20.60
2018-08-24T12:40:23.991Z,20.60
2018-08-24T12:42:50.979Z,20.60
2018-08-24T12:45:23.599Z,20.60
2018-08-24T12:47:50.611Z,20.50
2018-08-24T12:50:17.610Z,20.00
2018-08-24T12:52:44.608Z,20.00
2018-08-24T12:55:11.637Z,20.30
2018-08-24T12:57:38.628Z,20.20
2018-08-24T13:00:05.662Z,20.10
2018-08-24T13:02:32.610Z,19.50
2018-08-24T13:04:59.602Z,19.80
2018-08-24T13:07:26.590Z,19.90
2018-08-24T13:09:53.714Z,19.90
2018-08-24T13:12:20.706Z,19.70
2018-08-24T13:14:47.663Z,19.60
2018-08-24T13:17:14.653Z,19.50
2018-08-24T13:19:41.639Z,19.20
2018-08-24T13:22:08.639Z,19.50
2018-08-24T13:24:35.644Z,19.10
2018-08-24T13:27:02.660Z,19.20
2018-08-24T13:29:29.696Z,19.40
2018-08-24T13:31:56.643Z,19.00
2018-08-24T13:34:23.759Z,19.00
2018-08-24T13:36:50.867Z,18.90
2018-08-24T13:39:17.884Z,19.10
2018-08-24T13:41:44.875Z,19.20
2018-08-24T13:44:11.874Z,19.10
2018-08-24T13:46:39.479Z,19.00
2018-08-24T13:49:06.452Z,19.00
2018-08-24T13:51:33.403Z,19.00
2018-08-24T13:54:00.422Z,19.20
2018-08-24T13:56:27.395Z,18.90
2018-08-24T13:58:54.404Z,19.20
2018-08-24T14:01:21.440Z,19.10
2018-08-24T14:03:48.412Z,19.30
2018-08-24T14:06:15.386Z,19.40
2018-08-24T14:08:42.415Z,19.70
2018-08-24T14:11:09.386Z,18.90
2018-08-24T14:13:36.475Z,19.90
2018-08-24T14:16:03.399Z,19.90
2018-08-24T14:18:30.366Z,19.70
2018-08-24T14:20:57.417Z,19.60
2018-08-24T14:23:24.356Z,20.10
2018-08-24T14:25:51.316Z,20.60
2018-08-24T14:28:18.273Z,20.80
2018-08-24T14:30:45.275Z,20.80
2018-08-24T14:33:12.348Z,20.80
2018-08-24T14:35:39.328Z,20.40
2018-08-24T14:38:06.351Z,20.60
2018-08-24T14:40:33.320Z,20.80
2018-08-24T14:43:00.427Z,20.70
2018-08-24T14:45:27.442Z,20.70
2018-08-24T14:47:54.981Z,20.30
2018-08-24T14:50:21.977Z,20.30
2018-08-24T14:52:48.963Z,20.40
2018-08-24T14:55:15.990Z,20.50
2018-08-24T14:57:42.956Z,20.70
2018-08-24T15:00:09.963Z,20.40
2018-08-24T15:02:36.939Z,20.30
2018-08-24T15:05:05.522Z,20.20
2018-08-24T15:07:32.513Z,20.30
2018-08-24T15:09:59.529Z,20.40
2018-08-24T15:12:26.472Z,20.60
2018-08-24T15:14:53.473Z,20.50
2018-08-24T15:17:20.472Z,20.40
2018-08-24T15:19:47.453Z,20.10
2018-08-24T15:22:14.447Z,20.10
2018-08-24T15:24:41.471Z,20.10
2018-08-24T15:27:08.468Z,18.80
2018-08-24T15:29:35.614Z,20.30
2018-08-24T15:32:02.455Z,20.10
2018-08-24T15:34:29.422Z,20.10
2018-08-24T15:36:56.415Z,20.00
2018-08-24T15:39:23.418Z,19.70
2018-08-24T15:41:50.392Z,19.70
2018-08-24T15:44:17.377Z,19.90
2018-08-24T15:46:44.353Z,20.10
2018-08-24T15:49:11.668Z,20.30
2018-08-24T15:51:39.003Z,19.90
2018-08-24T15:54:05.979Z,19.50
2018-08-24T15:56:32.954Z,19.40
2018-08-24T15:58:59.986Z,19.60
2018-08-24T16:01:26.972Z,19.60
2018-08-24T16:03:53.940Z,19.70
2018-08-24T16:06:21.016Z,19.70
2018-08-24T16:08:47.983Z,19.70
2018-08-24T16:11:14.972Z,19.60
2018-08-24T16:13:41.963Z,19.70
2018-08-24T16:16:08.977Z,19.80
2018-08-24T16:18:35.971Z,19.80
2018-08-24T16:21:02.963Z,19.80
2018-08-24T16:23:29.971Z,19.80
2018-08-24T16:25:56.927Z,19.80
2018-08-24T16:28:23.922Z,19.60
2018-08-24T16:30:50.902Z,19.50
2018-08-24T16:33:18.439Z,19.40
2018-08-24T16:35:45.439Z,19.00
2018-08-24T16:38:12.399Z,19.00
2018-08-24T16:40:39.389Z,18.80
2018-08-24T16:43:06.482Z,18.90
2018-08-24T16:45:33.460Z,19.00
2018-08-24T16:48:00.418Z,19.00
2018-08-24T16:50:27.775Z,18.90
2018-08-24T16:52:54.750Z,18.80
2018-08-24T16:55:21.726Z,18.90
2018-08-24T16:57:49.646Z,18.90
2018-08-24T17:00:16.647Z,18.80
2018-08-24T17:02:43.635Z,18.80
2018-08-24T17:05:10.631Z,18.90
2018-08-24T17:07:37.626Z,18.70
2018-08-24T17:10:05.699Z,18.90
2018-08-24T17:12:32.781Z,18.90
2018-08-24T17:14:59.658Z,18.80
2018-08-24T17:17:26.638Z,18.80
2018-08-24T17:19:53.627Z,18.80
2018-08-24T17:22:20.603Z,18.80
2018-08-24T17:24:47.565Z,18.80
2018-08-24T17:27:14.563Z,18.80
2018-08-24T17:29:41.550Z,17.80
2018-08-24T17:32:08.554Z,18.60
2018-08-24T17:34:35.538Z,18.60
2018-08-24T17:37:02.535Z,18.60
2018-08-24T17:39:29.515Z,18.60
2018-08-24T17:41:56.542Z,18.70
2018-08-24T17:44:23.504Z,18.60
2018-08-24T17:46:50.471Z,18.60
2018-08-24T17:49:17.458Z,18.40
2018-08-24T17:51:44.969Z,18.50
2018-08-24T17:54:11.978Z,18.50
2018-08-24T17:56:38.951Z,18.40
2018-08-24T17:59:05.931Z,18.40
2018-08-24T18:01:32.896Z,18.40
2018-08-24T18:04:00.137Z,18.40
2018-08-24T18:06:27.102Z,18.50
2018-08-24T18:08:54.100Z,18.30
2018-08-24T18:11:21.147Z,18.50
2018-08-24T18:13:48.160Z,18.30
2018-08-24T18:16:15.130Z,18.30
2018-08-24T18:18:42.115Z,18.40
2018-08-24T18:21:09.439Z,18.40
2018-08-24T18:23:36.442Z,18.30
2018-08-24T18:26:03.430Z,18.30
2018-08-24T18:28:30.410Z,18.30
2018-08-24T18:30:57.385Z,18.30
2018-08-24T18:33:24.412Z,18.30
2018-08-24T18:35:51.385Z,18.20
2018-08-24T18:38:18.379Z,18.10
2018-08-24T18:40:45.382Z,18.20
2018-08-24T18:43:12.359Z,18.10
2018-08-24T18:45:39.347Z,18.10
2018-08-24T18:48:06.338Z,18.10
2018-08-24T18:50:33.342Z,18.20
2018-08-24T18:53:00.791Z,18.10
2018-08-24T18:55:27.802Z,18.00
2018-08-24T18:57:54.835Z,18.00
2018-08-24T19:00:21.784Z,18.00
2018-08-24T19:02:48.784Z,18.00
2018-08-24T19:05:15.814Z,18.00
2018-08-24T19:07:42.762Z,18.00
2018-08-24T19:10:09.753Z,18.00
2018-08-24T19:12:36.908Z,18.00
2018-08-24T19:15:03.868Z,18.00
2018-08-24T19:17:36.533Z,18.00
2018-08-24T19:20:09.474Z,18.00
2018-08-24T19:22:36.426Z,17.90
2018-08-24T19:25:03.409Z,17.80
2018-08-24T19:27:36.152Z,17.90
2018-08-24T19:30:08.901Z,17.90
2018-08-24T19:32:36.252Z,17.90
2018-08-24T19:35:03.183Z,17.90
2018-08-24T19:37:30.254Z,18.00
2018-08-24T19:40:02.822Z,18.10
2018-08-24T19:42:29.799Z,17.90
2018-08-24T19:44:56.920Z,18.00
2018-08-24T19:47:29.611Z,17.90
2018-08-24T19:49:56.595Z,17.80
2018-08-24T19:52:23.592Z,17.80
2018-08-24T19:54:51.619Z,17.90
2018-08-24T19:57:24.401Z,17.90
2018-08-24T19:59:51.358Z,17.90
2018-08-24T20:02:18.316Z,17.90
2018-08-24T20:04:45.298Z,17.90
2018-08-24T20:07:18.006Z,17.50
2018-08-24T20:09:50.641Z,17.80
2018-08-24T20:12:17.598Z,17.90
2018-08-24T20:14:50.311Z,17.90
2018-08-24T20:17:23.086Z,18.10
2018-08-24T20:19:50.043Z,18.00
2018-08-24T20:22:17.040Z,18.00
2018-08-24T20:24:44.073Z,17.90
2018-08-24T20:27:11.037Z,17.90
2018-08-24T20:29:38.048Z,17.90
2018-08-24T20:32:05.148Z,18.00
2018-08-24T20:34:32.130Z,17.90
2018-08-24T20:36:59.090Z,18.00
2018-08-24T20:39:26.047Z,18.00
2018-08-24T20:41:53.022Z,18.10
2018-08-24T20:44:20.047Z,18.10
2018-08-24T20:46:46.987Z,17.90
2018-08-24T20:49:13.982Z,17.90
2018-08-24T20:51:40.963Z,17.70
2018-08-24T20:54:07.960Z,18.00
2018-08-24T20:56:35.429Z,17.90
2018-08-24T20:59:02.417Z,17.80
2018-08-24T21:01:29.376Z,17.80
2018-08-24T21:03:56.351Z,17.80
2018-08-24T21:06:23.323Z,17.80
2018-08-24T21:08:50.275Z,17.70
2018-08-24T21:11:17.246Z,17.70
2018-08-24T21:13:44.279Z,17.50
2018-08-24T21:16:11.244Z,17.70
2018-08-24T21:18:38.247Z,17.70
2018-08-24T21:21:05.227Z,17.70
2018-08-24T21:23:32.215Z,17.60
2018-08-24T21:25:59.176Z,17.60
2018-08-24T21:28:26.172Z,17.60
2018-08-24T21:30:53.119Z,17.60
2018-08-24T21:33:20.286Z,17.70
2018-08-24T21:35:47.293Z,17.70
2018-08-24T21:38:14.259Z,17.70
2018-08-24T21:40:41.224Z,17.70
2018-08-24T21:43:08.251Z,17.70
2018-08-24T21:45:35.248Z,17.60
2018-08-24T21:48:02.219Z,17.60
2018-08-24T21:50:29.195Z,17.60
2018-08-24T21:52:56.165Z,17.60
2018-08-24T21:55:23.132Z,17.50
2018-08-24T21:57:50.279Z,17.50
2018-08-24T22:00:17.238Z,17.50
2018-08-24T22:02:44.699Z,17.40
2018-08-24T22:05:11.687Z,17.40
2018-08-24T22:07:38.682Z,17.40
2018-08-24T22:10:05.654Z,17.50
2018-08-24T22:12:32.692Z,17.50
2018-08-24T22:14:59.688Z,17.50
2018-08-24T22:17:26.667Z,17.60
2018-08-24T22:19:53.672Z,17.50
2018-08-24T22:22:20.645Z,17.60
2018-08-24T22:24:47.625Z,17.60
2018-08-24T22:27:14.588Z,17.50
2018-08-24T22:29:41.552Z,17.40
2018-08-24T22:32:08.570Z,17.50
2018-08-24T22:34:35.578Z,17.50
2018-08-24T22:37:02.554Z,17.40
2018-08-24T22:39:29.530Z,17.40
2018-08-24T22:41:56.531Z,17.50
2018-08-24T22:44:23.515Z,17.40
2018-08-24T22:46:50.474Z,17.50
2018-08-24T22:49:17.456Z,17.40
2018-08-24T22:51:44.447Z,17.40
2018-08-24T22:54:11.488Z,17.30
2018-08-24T22:56:38.455Z,17.30
2018-08-24T22:59:06.049Z,17.30
2018-08-24T23:01:33.040Z,17.30
2018-08-24T23:04:00.053Z,17.30
2018-08-24T23:06:27.008Z,17.20
2018-08-24T23:08:53.985Z,17.20
2018-08-24T23:11:20.983Z,17.10
2018-08-24T23:13:47.981Z,17.10
2018-08-24T23:16:14.937Z,17.10
2018-08-24T23:18:41.975Z,17.10
2018-08-24T23:21:08.954Z,17.00
2018-08-24T23:23:35.921Z,16.90
2018-08-24T23:26:02.923Z,16.90
2018-08-24T23:28:29.919Z,16.80
2018-08-24T23:30:56.903Z,16.70
2018-08-24T23:33:23.904Z,16.70
2018-08-24T23:35:50.902Z,16.70
2018-08-24T23:38:17.887Z,16.70
2018-08-24T23:40:44.871Z,16.50
2018-08-24T23:43:11.860Z,16.50
2018-08-24T23:45:38.828Z,16.50
2018-08-24T23:48:05.829Z,16.60
2018-08-24T23:50:32.799Z,16.40
2018-08-24T23:52:59.791Z,16.40
2018-08-24T23:55:26.779Z,16.30
2018-08-24T23:57:53.742Z,16.30
